Time;durP1;ratioP1;P1;durP2;ratioP2;P2;SDS_P1;SDS_P2;PMS_P1;PMS_P2;Temp;Humidity;BMP_temperature;BMP_pressure;BME280_temperature;BME280_humidity;BME280_pressure;Samples;Min_cycle;Max_cycle;Signal;HPM_P1;HPM_P2
2022/12/25 00:01:35;;;;;;;44.95;31.38;;;10.90;92.00;;;;;;6336896;22;20060;-74
2022/12/25 00:04:01;;;;;;;46.05;32.50;;;11.00;92.00;;;;;;6337246;22;20329;-73
2022/12/25 00:06:27;;;;;;;46.67;31.23;;;11.00;92.00;;;;;;6337985;22;19995;-83
2022/12/25 00:08:52;;;;;;;43.45;29.45;;;11.00;92.00;;;;;;6338050;22;19994;-74
2022/12/25 00:11:19;;;;;;;45.15;31.08;;;10.90;91.90;;;;;;6335736;22;20352;-74
2022/12/25 00:13:46;;;;;;;45.45;31.08;;;10.90;92.00;;;;;;6308003;22;20007;-74
2022/12/25 00:16:23;;;;;;;45.42;30.90;;;11.00;92.00;;;;;;6336008;22;20013;-74
2022/12/25 00:18:50;;;;;;;51.03;31.08;;;11.00;92.00;;;;;;6334433;22;20750;-75
2022/12/25 00:21:17;;;;;;;43.15;30.48;;;11.00;92.00;;;;;;6307228;22;20325;-75
2022/12/25 00:23:43;;;;;;;46.22;31.23;;;11.00;92.00;;;;;;6335890;22;20003;-75
2022/12/25 00:26:12;;;;;;;46.47;31.90;;;11.00;92.00;;;;;;6336022;22;19999;-75
2022/12/25 00:28:38;;;;;;;47.00;30.85;;;10.90;92.00;;;;;;6336995;22;20023;-74
2022/12/25 00:31:15;;;;;;;43.90;30.75;;;11.00;92.00;;;;;;6336896;22;19999;-85
2022/12/25 00:33:43;;;;;;;47.80;31.45;;;11.00;92.30;;;;;;6311709;22;20013;-85
2022/12/25 00:36:11;;;;;;;41.05;29.20;;;11.00;92.00;;;;;;6337329;22;20425;-84
2022/12/25 00:38:38;;;;;;;45.05;29.77;;;11.00;92.00;;;;;;6337091;22;20006;-84
2022/12/25 00:41:13;;;;;;;42.90;30.35;;;11.00;92.00;;;;;;6337842;22;20424;-85
2022/12/25 00:43:40;;;;;;;47.70;31.65;;;11.00;92.00;;;;;;6337757;22;20048;-83
2022/12/25 00:46:07;;;;;;;46.25;31.20;;;10.90;92.00;;;;;;6308674;22;20028;-83
2022/12/25 00:48:34;;;;;;;45.80;30.38;;;10.90;92.00;;;;;;6337811;22;19999;-83
2022/12/25 00:51:02;;;;;;;40.22;28.90;;;10.90;92.00;;;;;;6309786;22;20076;-84
2022/12/25 00:53:29;;;;;;;41.75;29.00;;;10.90;92.10;;;;;;6337585;22;20003;-84
2022/12/25 00:55:57;;;;;;;40.90;29.33;;;10.90;92.10;;;;;;6337703;22;20026;-84
2022/12/25 00:58:24;;;;;;;44.85;30.58;;;10.90;92.10;;;;;;6337370;22;19999;-84
2022/12/25 01:00:51;;;;;;;44.97;30.27;;;10.90;92.10;;;;;;6337594;22;20009;-84
2022/12/25 01:03:17;;;;;;;46.97;32.42;;;10.90;92.10;;;;;;6336867;22;20007;-84
2022/12/25 01:05:53;;;;;;;45.05;30.77;;;10.90;92.10;;;;;;6337836;22;20396;-83
2022/12/25 01:08:18;;;;;;;44.33;30.15;;;10.90;92.10;;;;;;6337529;22;19998;-83
2022/12/25 01:10:51;;;;;;;39.33;27.40;;;10.90;92.10;;;;;;6336031;22;20722;-83
2022/12/25 01:13:17;;;;;;;40.63;28.98;;;10.90;92.10;;;;;;6337809;22;20032;-83
2022/12/25 01:15:43;;;;;;;41.58;30.80;;;10.90;92.20;;;;;;6337201;22;20002;-83
2022/12/25 01:18:08;;;;;;;46.85;29.05;;;11.00;92.10;;;;;;6337910;22;20312;-83
2022/12/25 01:20:34;;;;;;;41.92;28.73;;;11.00;92.10;;;;;;6337096;22;20405;-84
2022/12/25 01:23:00;;;;;;;39.30;28.13;;;10.90;92.10;;;;;;6337876;22;20351;-83
2022/12/25 01:25:25;;;;;;;43.65;29.30;;;10.90;92.10;;;;;;6337597;22;19995;-83
2022/12/25 01:27:51;;;;;;;42.53;28.58;;;11.00;92.20;;;;;;6311944;22;20444;-83
2022/12/25 01:30:17;;;;;;;42.65;29.02;;;11.00;92.10;;;;;;6338464;22;20443;-84
2022/12/25 01:32:42;;;;;;;41.53;30.05;;;11.00;92.10;;;;;;6339610;22;20022;-83
2022/12/25 01:35:08;;;;;;;44.33;28.45;;;11.00;92.10;;;;;;6339328;22;19995;-84
2022/12/25 01:37:34;;;;;;;41.50;27.25;;;11.00;92.10;;;;;;6339235;22;20103;-83
2022/12/25 01:40:00;;;;;;;41.28;28.75;;;11.00;92.10;;;;;;6338731;22;20002;-84
2022/12/25 01:42:25;;;;;;;40.92;29.15;;;11.00;92.10;;;;;;6339171;22;20077;-83
2022/12/25 01:44:51;;;;;;;40.92;28.35;;;11.10;92.10;;;;;;6339376;22;20051;-83
2022/12/25 01:47:17;;;;;;;39.33;28.35;;;11.10;92.10;;;;;;6338642;22;19995;-82
2022/12/25 01:49:48;;;;;;;41.78;29.00;;;11.10;92.10;;;;;;6338159;22;20058;-82
2022/12/25 01:52:18;;;;;;;42.45;28.88;;;11.10;92.10;;;;;;6338768;22;20002;-83
2022/12/25 01:54:56;;;;;;;39.80;27.10;;;11.10;92.10;;;;;;6339831;22;20404;-84
2022/12/25 01:57:26;;;;;;;37.95;26.83;;;11.10;92.10;;;;;;6338869;22;20523;-83
2022/12/25 01:59:53;;;;;;;37.85;27.10;;;11.10;92.10;;;;;;6310659;22;20010;-84
2022/12/25 02:02:21;;;;;;;41.13;28.15;;;11.20;92.10;;;;;;6339321;22;20010;-84
2022/12/25 02:05:02;;;;;;;39.35;27.33;;;11.20;92.10;;;;;;6339504;22;20048;-84
2022/12/25 02:07:31;;;;;;;43.10;27.85;;;11.20;92.10;;;;;;6338562;22;19999;-83
2022/12/25 02:09:56;;;;;;;38.50;26.58;;;11.20;92.10;;;;;;6339177;22;20291;-83
2022/12/25 02:12:25;;;;;;;39.05;27.67;;;11.20;92.10;;;;;;6338505;22;20048;-83
2022/12/25 02:14:56;;;;;;;37.58;26.92;;;11.20;92.10;;;;;;6339577;22;20006;-85
2022/12/25 02:17:30;;;;;;;;;;;11.20;92.10;;;;;;6338627;22;20003;-84
2022/12/25 02:20:15;;;;;;;37.65;26.10;;;11.20;92.10;;;;;;6338429;22;20309;-84
2022/12/25 02:22:56;;;;;;;38.63;27.73;;;11.20;92.10;;;;;;6338890;22;20010;-84
2022/12/25 02:25:27;;;;;;;40.17;27.13;;;11.20;92.10;;;;;;6338878;22;19999;-83
2022/12/25 02:28:11;;;;;;;40.13;26.67;;;11.20;92.20;;;;;;6338895;22;20068;-74
2022/12/25 02:30:48;;;;;;;38.67;26.63;;;11.10;92.40;;;;;;6337678;22;19998;-74
2022/12/25 02:36:36;;;;;;;40.65;28.02;;;11.20;92.20;;;;;;6337576;22;20073;-74
2022/12/25 02:41:57;;;;;;;43.00;28.23;;;11.20;92.20;;;;;;6338211;22;20021;-74
2022/12/25 03:07:10;;;;;;;37.37;26.17;;;11.10;92.30;;;;;;6336750;22;20064;-76
2022/12/25 03:12:41;;;;;;;40.92;27.85;;;11.20;92.30;;;;;;6337911;22;20010;-75
2022/12/25 03:17:57;;;;;;;40.03;27.15;;;11.20;92.30;;;;;;6338309;22;20017;-74
2022/12/25 03:28:38;;;;;;;44.17;28.30;;;11.00;92.30;;;;;;6337794;22;20332;-74
2022/12/25 03:31:34;;;;;;;41.30;27.88;;;11.00;92.30;;;;;;6337162;22;20069;-82
2022/12/25 04:36:11;;;;;;;33.67;24.73;;;10.80;92.70;;;;;;6337368;22;20317;-74
2022/12/25 04:38:38;;;;;;;36.60;25.15;;;10.80;92.70;;;;;;6337413;22;20052;-74
2022/12/25 04:41:05;;;;;;;32.33;23.55;;;10.80;92.70;;;;;;6336619;22;20013;-74
2022/12/25 04:43:30;;;;;;;35.13;24.63;;;10.90;92.70;;;;;;6308490;22;20362;-75
2022/12/25 04:45:58;;;;;;;39.17;25.88;;;10.90;92.70;;;;;;6336493;22;20074;-74
2022/12/25 04:48:25;;;;;;;37.65;25.52;;;10.90;92.60;;;;;;6336739;22;19994;-82
2022/12/25 04:51:11;;;;;;;37.53;25.02;;;10.90;92.70;;;;;;6309003;22;20344;-83
2022/12/25 04:53:37;;;;;;;36.95;25.27;;;10.90;92.60;;;;;;6307590;22;20030;-83
2022/12/25 04:56:04;;;;;;;36.92;24.00;;;10.90;92.60;;;;;;6337097;22;20401;-82
2022/12/25 04:58:31;;;;;;;40.22;26.58;;;10.90;92.60;;;;;;6336890;22;20002;-82
2022/12/25 05:01:01;;;;;;;37.65;26.20;;;10.90;92.60;;;;;;6336332;22;20003;-81
2022/12/25 05:03:27;;;;;;;;;;;11.00;92.60;;;;;;6337500;22;20458;-75
2022/12/25 05:05:53;;;;;;;34.25;23.38;;;11.00;92.60;;;;;;6337307;22;19937;-74
2022/12/25 05:08:19;;;;;;;34.28;24.17;;;11.00;92.60;;;;;;6336375;22;19995;-74
2022/12/25 05:10:45;;;;;;;37.65;24.85;;;11.00;92.60;;;;;;6337491;22;19995;-75
2022/12/25 05:13:10;;;;;;;36.25;26.25;;;11.00;92.50;;;;;;6337192;22;20078;-75
2022/12/25 05:15:39;;;;;;;41.08;26.58;;;11.00;92.60;;;;;;6337141;22;19999;-75
2022/12/25 05:18:05;;;;;;;36.28;26.05;;;11.00;92.50;;;;;;6308636;22;20034;-75
2022/12/25 05:20:30;;;;;;;38.30;25.83;;;11.00;92.50;;;;;;6336430;22;20417;-74
2022/12/25 05:22:56;;;;;;;35.22;25.50;;;11.00;92.50;;;;;;6335102;22;20110;-74
2022/12/25 05:25:22;;;;;;;35.78;24.35;;;11.00;92.50;;;;;;6336754;22;20392;-74
2022/12/25 05:27:47;;;;;;;31.52;23.30;;;11.00;92.50;;;;;;6336837;22;20413;-75
2022/12/25 05:30:13;;;;;;;35.75;24.42;;;11.00;92.40;;;;;;6336902;22;20363;-75
2022/12/25 05:32:39;;;;;;;33.63;23.67;;;11.00;92.40;;;;;;6308599;22;20003;-75
2022/12/25 05:35:07;;;;;;;33.03;24.60;;;11.00;92.40;;;;;;6308164;22;20318;-76
2022/12/25 05:37:33;;;;;;;35.78;24.77;;;10.90;92.40;;;;;;6336694;22;20010;-75
2022/12/25 05:39:59;;;;;;;31.92;22.55;;;10.90;92.50;;;;;;6336949;22;20002;-76
2022/12/25 05:42:25;;;;;;;35.20;24.35;;;10.90;92.50;;;;;;6336840;22;20002;-77
2022/12/25 05:44:51;;;;;;;31.38;23.13;;;10.90;92.50;;;;;;6336182;22;20003;-74
2022/12/25 05:47:16;;;;;;;36.10;23.88;;;10.90;92.40;;;;;;6308229;22;20003;-74
2022/12/25 05:49:42;;;;;;;32.38;22.63;;;10.90;92.40;;;;;;6337305;22;20355;-74
2022/12/25 05:52:08;;;;;;;31.10;22.73;;;10.80;92.40;;;;;;6335528;22;20010;-74
2022/12/25 05:54:34;;;;;;;31.38;22.60;;;10.80;92.40;;;;;;6309116;22;20007;-75
2022/12/25 05:56:59;;;;;;;31.83;23.00;;;10.80;92.40;;;;;;6308894;22;20003;-75
2022/12/25 05:59:28;;;;;;;32.30;23.10;;;10.80;92.40;;;;;;6336421;22;20052;-75
2022/12/25 06:01:54;;;;;;;30.30;21.38;;;10.80;92.40;;;;;;6307474;22;20010;-75
2022/12/25 06:04:20;;;;;;;32.85;22.25;;;10.80;92.50;;;;;;6335574;22;20014;-75
2022/12/25 06:06:45;;;;;;;31.77;22.00;;;10.80;92.50;;;;;;6337423;22;20036;-76
2022/12/25 06:09:12;;;;;;;30.90;22.13;;;10.70;92.70;;;;;;6309284;22;20074;-75
2022/12/25 06:11:39;;;;;;;31.27;22.45;;;10.70;92.40;;;;;;6337149;22;20006;-75
2022/12/25 06:14:04;;;;;;;31.88;22.83;;;10.70;92.40;;;;;;6338240;22;20055;-75
2022/12/25 06:16:30;;;;;;;32.08;21.42;;;10.70;92.40;;;;;;6338061;22;19998;-76
2022/12/25 06:18:56;;;;;;;33.33;23.02;;;10.70;92.40;;;;;;6311172;22;20401;-75
2022/12/25 06:21:22;;;;;;;30.60;21.52;;;10.70;92.50;;;;;;6310622;22;20010;-75
2022/12/25 06:23:48;;;;;;;30.70;21.25;;;10.60;92.50;;;;;;6336932;22;20002;-83
2022/12/25 06:26:16;;;;;;;30.17;21.23;;;10.60;92.50;;;;;;6337691;22;19999;-84
2022/12/25 06:28:42;;;;;;;31.13;21.63;;;10.60;92.50;;;;;;6338452;22;20003;-83
2022/12/25 06:31:13;;;;;;;33.08;22.23;;;10.60;92.50;;;;;;6338309;22;20325;-82
2022/12/25 06:33:39;;;;;;;32.50;22.02;;;10.60;92.50;;;;;;6337672;22;20003;-83
2022/12/25 06:36:08;;;;;;;30.85;21.73;;;10.60;92.50;;;;;;6338263;22;20003;-82
2022/12/25 06:38:34;;;;;;;30.60;21.65;;;10.60;92.40;;;;;;6337777;22;20007;-84
2022/12/25 06:41:09;;;;;;;31.00;21.17;;;10.60;92.50;;;;;;6339314;22;20038;-84
2022/12/25 06:43:35;;;;;;;29.35;21.02;;;10.60;92.50;;;;;;6338356;22;20492;-84
2022/12/25 06:46:06;;;;;;;28.10;21.33;;;10.60;92.50;;;;;;6337929;22;20026;-85
2022/12/25 06:48:36;;;;;;;30.17;21.15;;;10.50;92.50;;;;;;6338818;22;20006;-84
2022/12/25 06:51:02;;;;;;;28.45;20.48;;;10.50;92.50;;;;;;6338818;22;20324;-81
2022/12/25 06:53:29;;;;;;;29.23;20.85;;;10.50;92.60;;;;;;6338016;22;20003;-79
2022/12/25 06:56:04;;;;;;;30.58;22.25;;;10.50;92.60;;;;;;6337031;22;20009;-79
2022/12/25 06:58:30;;;;;;;31.48;20.42;;;10.50;92.60;;;;;;6338134;22;20436;-70
2022/12/25 07:00:56;;;;;;;32.92;22.42;;;10.50;92.70;;;;;;6309629;22;20006;-71
2022/12/25 07:03:23;;;;;;;29.95;21.00;;;10.50;92.70;;;;;;6337362;22;20051;-70
2022/12/25 07:05:48;;;;;;;29.83;21.52;;;10.60;92.70;;;;;;6284725;22;20493;-74
2022/12/25 07:08:14;;;;;;;30.92;20.92;;;10.60;92.70;;;;;;6337983;22;20007;-74
2022/12/25 07:10:40;;;;;;;26.48;18.70;;;10.60;92.70;;;;;;6337109;22;20406;-71
2022/12/25 07:13:06;;;;;;;29.85;21.05;;;10.60;93.10;;;;;;6337023;22;20074;-71
2022/12/25 07:15:31;;;;;;;27.60;20.67;;;10.60;92.90;;;;;;6337252;22;19995;-71
2022/12/25 07:17:57;;;;;;;30.52;21.33;;;10.70;92.80;;;;;;6337504;22;19998;-70
2022/12/25 07:20:24;;;;;;;29.90;20.63;;;10.60;92.80;;;;;;6337636;22;19998;-71
2022/12/25 07:22:49;;;;;;;29.92;21.38;;;10.70;92.70;;;;;;6337322;22;19994;-70
2022/12/25 07:25:15;;;;;;;30.02;21.25;;;10.70;92.80;;;;;;6337995;22;20451;-71
2022/12/25 07:27:41;;;;;;;30.30;22.02;;;10.70;92.80;;;;;;6337794;22;20038;-70
2022/12/25 07:30:07;;;;;;;31.40;20.95;;;10.70;92.80;;;;;;6338377;22;20304;-70
2022/12/25 07:32:33;;;;;;;30.05;21.45;;;10.70;92.80;;;;;;6337235;22;20351;-70
2022/12/25 07:34:58;;;;;;;29.40;20.65;;;10.70;92.80;;;;;;6337656;22;20052;-71
2022/12/25 07:37:25;;;;;;;28.88;21.00;;;10.70;92.80;;;;;;6337394;22;20084;-71
2022/12/25 07:39:51;;;;;;;29.30;20.63;;;10.80;92.80;;;;;;6307877;22;20448;-71
2022/12/25 07:42:17;;;;;;;31.92;22.00;;;10.80;92.80;;;;;;6337036;22;19999;-71
2022/12/25 07:44:42;;;;;;;29.02;21.38;;;10.80;92.70;;;;;;6336385;22;20472;-70
2022/12/25 07:47:08;;;;;;;29.90;21.42;;;10.80;92.70;;;;;;6336384;22;19999;-70
2022/12/25 07:49:37;;;;;;;36.67;24.45;;;10.80;92.70;;;;;;6336546;22;19999;-70
2022/12/25 07:52:03;;;;;;;36.50;24.90;;;10.90;92.90;;;;;;6336783;22;20002;-71
2022/12/25 07:54:28;;;;;;;30.52;22.05;;;10.90;92.60;;;;;;6336384;22;20006;-79
2022/12/25 07:56:54;;;;;;;33.40;23.40;;;10.90;92.60;;;;;;6337090;22;20002;-79
2022/12/25 07:59:20;;;;;;;32.10;22.80;;;10.90;92.60;;;;;;6308245;22;20094;-71
2022/12/25 08:01:48;;;;;;;32.75;21.63;;;10.90;92.70;;;;;;6335147;22;20102;-70
2022/12/25 08:04:14;;;;;;;33.45;22.67;;;10.90;92.60;;;;;;6308209;22;20055;-71
2022/12/25 08:06:40;;;;;;;34.08;22.60;;;11.00;92.60;;;;;;6337138;22;20391;-70
2022/12/25 08:09:11;;;;;;;28.30;20.38;;;11.00;92.60;;;;;;6335555;22;20002;-70
2022/12/25 08:11:37;;;;;;;30.95;22.00;;;11.10;92.60;;;;;;6335698;22;20355;-70
2022/12/25 08:14:07;;;;;;;31.65;22.17;;;11.10;92.60;;;;;;6336054;22;20002;-70
2022/12/25 08:16:33;;;;;;;30.65;21.90;;;11.10;92.60;;;;;;6336572;22;20067;-71
2022/12/25 08:18:59;;;;;;;30.50;21.95;;;11.20;92.60;;;;;;6336760;22;20433;-70
2022/12/25 08:21:35;;;;;;;30.67;22.05;;;11.20;92.60;;;;;;6337906;22;20010;-70
2022/12/25 08:24:02;;;;;;;32.97;22.17;;;11.20;92.60;;;;;;6309126;22;20067;-71
2022/12/25 08:26:27;;;;;;;30.60;22.13;;;11.30;92.60;;;;;;6336888;22;20006;-70
2022/12/25 08:28:53;;;;;;;31.50;23.25;;;11.30;92.50;;;;;;6336581;22;20037;-71
2022/12/25 08:31:22;;;;;;;34.17;23.45;;;11.40;92.50;;;;;;6336931;22;20330;-71
2022/12/25 08:33:50;;;;;;;37.00;25.27;;;11.40;92.60;;;;;;6336244;22;19999;-72
2022/12/25 08:36:17;;;;;;;37.05;26.13;;;11.50;92.40;;;;;;6335791;22;20014;-71
2022/12/25 08:38:43;;;;;;;34.42;24.98;;;11.50;92.30;;;;;;6335082;22;20003;-71
2022/12/25 08:41:10;;;;;;;35.75;25.85;;;11.50;92.30;;;;;;6308982;22;20641;-83
2022/12/25 08:43:36;;;;;;;36.05;25.15;;;11.50;92.30;;;;;;6335207;22;20002;-80
2022/12/25 08:59:41;;;;;;;37.70;28.05;;;11.90;91.80;;;;;;6215297;22;1633585;-79
2022/12/25 09:02:08;;;;;;;35.10;26.40;;;12.30;91.60;;;;;;6284340;22;20041;-80
2022/12/25 09:04:34;;;;;;;34.85;25.13;;;12.30;91.40;;;;;;6285772;22;20050;-79
2022/12/25 09:06:59;;;;;;;39.50;25.85;;;12.30;91.40;;;;;;6284363;22;20333;-80
2022/12/25 09:09:27;;;;;;;34.22;25.40;;;12.30;91.30;;;;;;6281608;22;20004;-80
2022/12/25 09:11:53;;;;;;;36.75;26.02;;;12.30;91.30;;;;;;6280356;22;19995;-80
2022/12/25 09:14:18;;;;;;;36.70;25.15;;;12.30;91.40;;;;;;6281860;22;20007;-80
2022/12/25 09:16:44;;;;;;;34.42;25.33;;;12.30;91.30;;;;;;6282183;22;19996;-79
2022/12/25 09:19:10;;;;;;;37.17;25.88;;;12.40;91.30;;;;;;6282739;22;20000;-80
2022/12/25 09:21:35;;;;;;;35.92;25.23;;;12.40;91.30;;;;;;6280549;22;20404;-80
2022/12/25 09:24:02;;;;;;;35.50;26.55;;;12.40;91.30;;;;;;6282075;22;20003;-80
2022/12/25 09:26:28;;;;;;;33.63;24.92;;;12.40;91.30;;;;;;6283000;22;20003;-81
2022/12/25 09:28:54;;;;;;;37.17;25.45;;;12.40;91.30;;;;;;6283639;22;20011;-80
2022/12/25 09:31:21;;;;;;;35.47;26.27;;;12.50;91.30;;;;;;6282635;22;20003;-81
2022/12/25 09:33:47;;;;;;;37.78;27.10;;;12.50;91.20;;;;;;6279408;22;20003;-83
2022/12/25 09:36:12;;;;;;;40.55;28.17;;;12.50;91.20;;;;;;6284032;22;20000;-88
2022/12/25 09:38:38;;;;;;;36.80;26.27;;;12.60;91.30;;;;;;6257330;22;20018;-85
2022/12/25 09:41:25;;;;;;;37.75;27.80;;;12.60;91.30;;;;;;6281021;22;20072;-73
2022/12/25 09:44:05;;;;;;;38.67;26.63;;;12.60;91.20;;;;;;6280354;22;20003;-73
2022/12/25 09:46:49;;;;;;;37.47;25.90;;;12.70;91.20;;;;;;6255169;22;20008;-73
2022/12/25 09:49:26;;;;;;;39.28;28.35;;;12.70;91.20;;;;;;6283222;22;20463;-80
2022/12/25 09:52:01;;;;;;;40.25;29.05;;;12.70;91.10;;;;;;6283612;22;20006;-81
2022/12/25 09:55:05;;;;;;;42.42;29.17;;;12.80;91.10;;;;;;6279698;22;20026;-80
2022/12/25 09:57:32;;;;;;;42.22;29.95;;;12.80;91.10;;;;;;6204497;22;20467;-79
2022/12/25 09:59:58;;;;;;;41.75;29.90;;;12.90;91.10;;;;;;6275933;22;20388;-72
2022/12/25 10:02:51;;;;;;;40.10;28.58;;;12.90;91.10;;;;;;6274993;22;20004;-72
2022/12/25 10:05:45;;;;;;;43.10;30.58;;;12.90;91.10;;;;;;6273345;22;20488;-73
2022/12/25 10:08:29;;;;;;;41.75;28.42;;;12.90;91.00;;;;;;6248545;22;20018;-76
2022/12/25 10:11:24;;;;;;;39.58;28.27;;;12.90;91.00;;;;;;6272989;22;19996;-74
2022/12/25 10:14:12;;;;;;;40.97;29.13;;;12.90;91.00;;;;;;6245001;22;20007;-82
2022/12/25 10:17:20;;;;;;;42.97;30.20;;;13.00;91.10;;;;;;6272090;22;20000;-78
2022/12/25 10:20:01;;;;;;;44.40;29.98;;;13.10;91.00;;;;;;6272348;22;20074;-80
2022/12/25 10:22:40;;;;;;;45.95;30.33;;;13.20;91.00;;;;;;6272290;22;20004;-81
2022/12/25 10:25:15;;;;;;;46.07;31.00;;;13.50;91.00;;;;;;6274862;22;20058;-82
2022/12/25 10:27:42;;;;;;;48.38;31.58;;;13.50;90.90;;;;;;6248107;22;20007;-82
2022/12/25 10:30:17;;;;;;;45.15;30.33;;;13.70;90.80;;;;;;6275095;22;20426;-83
2022/12/25 10:32:46;;;;;;;39.85;28.98;;;13.90;90.70;;;;;;6276144;22;19996;-75
2022/12/25 10:35:15;;;;;;;41.40;29.20;;;14.10;90.50;;;;;;6247896;22;20004;-75
2022/12/25 10:37:43;;;;;;;39.13;28.63;;;14.30;90.40;;;;;;6273415;22;20015;-76
2022/12/25 10:40:37;;;;;;;45.42;31.83;;;14.50;90.20;;;;;;6281177;22;20027;-79
2022/12/25 10:43:30;;;;;;;41.85;29.25;;;14.70;89.40;;;;;;6277449;22;20003;-80
2022/12/25 10:45:55;;;;;;;39.58;27.40;;;14.80;88.40;;;;;;6276456;22;20003;-78
2022/12/25 10:48:27;;;;;;;39.40;28.13;;;14.80;88.10;;;;;;6272375;22;20304;-78
2022/12/25 10:50:54;;;;;;;40.97;27.33;;;15.00;88.20;;;;;;6272927;22;20000;-78
2022/12/25 10:53:27;;;;;;;42.25;29.90;;;15.10;87.60;;;;;;6274478;22;20056;-78
2022/12/25 10:56:15;;;;;;;35.78;26.58;;;15.30;87.70;;;;;;6273863;22;19996;-73
2022/12/25 10:58:42;;;;;;;37.58;26.63;;;15.40;86.50;;;;;;6275485;22;20019;-73
2022/12/25 11:01:08;;;;;;;35.45;26.58;;;15.40;85.80;;;;;;6275495;22;20007;-73
2022/12/25 11:03:39;;;;;;;39.67;28.08;;;15.50;85.90;;;;;;6274731;22;20014;-73
2022/12/25 11:06:19;;;;;;;39.72;27.40;;;15.60;86.00;;;;;;6274394;22;20003;-73
2022/12/25 11:09:00;;;;;;;39.55;27.13;;;15.80;85.50;;;;;;6275721;22;20010;-73
2022/12/25 11:11:27;;;;;;;36.72;27.40;;;15.90;85.30;;;;;;6275174;22;20021;-73
2022/12/25 11:13:57;;;;;;;38.50;26.08;;;16.00;84.30;;;;;;6275698;22;19995;-72
2022/12/25 11:16:37;;;;;;;37.35;27.08;;;16.10;83.50;;;;;;6276968;22;19995;-73
2022/12/25 11:19:30;;;;;;;33.05;25.45;;;16.20;82.20;;;;;;6249131;22;20057;-73
2022/12/25 11:21:59;;;;;;;35.70;23.55;;;16.00;82.00;;;;;;6276771;22;20430;-73
2022/12/25 11:24:28;;;;;;;34.55;24.77;;;15.90;82.50;;;;;;6249836;22;20015;-72
2022/12/25 11:26:56;;;;;;;33.45;24.02;;;15.90;82.50;;;;;;6249789;22;20015;-73
2022/12/25 11:29:50;;;;;;;35.10;25.00;;;15.90;83.10;;;;;;6276289;22;20424;-73
2022/12/25 11:32:19;;;;;;;37.13;27.42;;;16.10;83.20;;;;;;6277011;22;20074;-73
2022/12/25 11:34:47;;;;;;;38.50;25.73;;;16.30;83.10;;;;;;6276937;22;19996;-73
2022/12/25 11:37:19;;;;;;;33.42;25.60;;;16.60;82.90;;;;;;6276907;22;20003;-73
2022/12/25 11:39:45;;;;;;;34.80;25.65;;;16.80;82.30;;;;;;6276335;22;20302;-73
2022/12/25 11:42:23;;;;;;;32.53;23.45;;;17.00;81.20;;;;;;6249437;22;20029;-73
2022/12/25 11:44:55;;;;;;;36.50;27.45;;;17.20;81.10;;;;;;6276815;22;20437;-73
2022/12/25 11:47:37;;;;;;;35.65;25.58;;;17.60;79.80;;;;;;6249604;22;20007;-73
2022/12/25 11:50:13;;;;;;;37.65;26.58;;;18.20;78.80;;;;;;6276640;22;20004;-73
2022/12/25 11:52:43;;;;;;;35.90;27.52;;;19.00;76.50;;;;;;6276103;22;20054;-73
2022/12/25 11:55:41;;;;;;;35.90;28.13;;;19.70;74.70;;;;;;6276602;22;20007;-73
2022/12/25 11:58:34;;;;;;;32.38;25.35;;;20.40;72.60;;;;;;6276425;22;20012;-73
2022/12/25 12:01:04;;;;;;;33.92;25.00;;;20.90;69.60;;;;;;6276334;22;20057;-73
2022/12/25 12:03:35;;;;;;;32.35;25.88;;;21.30;68.70;;;;;;6249631;22;20008;-73
2022/12/25 12:06:24;;;;;;;33.72;26.42;;;21.50;67.10;;;;;;6248994;22;20175;-73
2022/12/25 12:08:56;;;;;;;33.90;26.33;;;21.40;66.50;;;;;;6249843;22;20085;-73
2022/12/25 12:11:37;;;;;;;36.22;27.23;;;20.70;66.60;;;;;;6275977;22;20004;-73
2022/12/25 12:14:44;;;;;;;33.10;25.27;;;20.00;67.40;;;;;;6276186;22;20014;-72
2022/12/25 12:17:12;;;;;;;34.28;25.73;;;19.30;68.80;;;;;;6276116;22;20298;-73
2022/12/25 12:19:38;;;;;;;35.80;28.95;;;18.70;70.10;;;;;;6276256;22;20027;-73
2022/12/25 12:22:04;;;;;;;37.35;29.15;;;18.30;71.50;;;;;;6275298;22;20000;-73
2022/12/25 12:24:38;;;;;;;32.78;28.05;;;17.80;72.80;;;;;;6276464;22;20004;-73
2022/12/25 12:27:23;;;;;;;35.65;27.42;;;17.50;74.20;;;;;;6276212;22;20004;-73
2022/12/25 12:29:52;;;;;;;32.90;26.10;;;17.10;75.20;;;;;;6276483;22;20003;-72
2022/12/25 12:32:33;;;;;;;33.13;27.17;;;16.90;75.90;;;;;;6248320;22;20014;-73
2022/12/25 12:35:05;;;;;;;30.77;25.65;;;16.70;76.60;;;;;;6276316;22;19995;-73
2022/12/25 12:37:37;;;;;;;32.00;26.33;;;16.50;77.10;;;;;;6275582;22;20000;-73
2022/12/25 12:40:06;;;;;;;31.80;25.17;;;16.30;77.80;;;;;;6276348;22;20034;-72
2022/12/25 12:42:39;;;;;;;34.78;26.02;;;16.10;78.40;;;;;;6275821;22;20000;-73
2022/12/25 12:45:28;;;;;;;33.72;25.73;;;16.00;78.80;;;;;;6249011;22;20014;-72
2022/12/25 12:47:55;;;;;;;34.07;25.50;;;15.90;79.30;;;;;;6275710;22;20092;-73
2022/12/25 12:50:36;;;;;;;34.10;26.55;;;15.80;79.80;;;;;;6276385;22;20309;-73
2022/12/25 12:53:20;;;;;;;34.38;25.88;;;15.70;80.40;;;;;;6276264;22;20004;-72
2022/12/25 12:55:46;;;;;;;32.63;26.17;;;15.60;80.90;;;;;;6276500;22;20045;-73
2022/12/25 12:58:32;;;;;;;33.70;26.88;;;15.60;81.40;;;;;;6276000;22;20019;-73
2022/12/25 13:01:10;;;;;;;34.83;26.90;;;15.50;81.70;;;;;;6276038;22;20070;-73
2022/12/25 13:03:38;;;;;;;34.03;27.40;;;15.40;82.00;;;;;;6276325;22;20004;-72
2022/12/25 13:06:33;;;;;;;35.30;25.92;;;15.40;82.30;;;;;;6276260;22;20027;-73
2022/12/25 13:09:37;;;;;;;33.90;24.60;;;15.30;82.40;;;;;;6220914;22;20012;-73
2022/12/25 13:12:07;;;;;;;31.70;24.83;;;15.20;82.70;;;;;;6275902;22;20057;-73
2022/12/25 13:14:34;;;;;;;33.45;26.20;;;15.10;82.80;;;;;;6275659;22;20011;-73
2022/12/25 13:17:00;;;;;;;32.67;25.92;;;15.00;82.90;;;;;;6276228;22;20353;-73
2022/12/25 13:19:28;;;;;;;36.97;26.48;;;15.10;83.20;;;;;;6276224;22;20010;-73
2022/12/25 13:21:59;;;;;;;33.45;26.02;;;15.00;83.30;;;;;;6276028;22;20065;-73
2022/12/25 13:24:27;;;;;;;32.08;24.23;;;15.00;83.30;;;;;;6275140;22;20407;-72
2022/12/25 13:26:53;;;;;;;32.92;24.52;;;14.90;83.50;;;;;;6275951;22;20000;-73
2022/12/25 13:29:36;;;;;;;34.13;25.55;;;14.80;83.80;;;;;;6275620;22;19999;-73
2022/12/25 13:32:05;;;;;;;33.28;25.10;;;14.80;84.00;;;;;;6276339;22;20003;-72
2022/12/25 13:34:42;;;;;;;31.05;25.17;;;14.80;84.20;;;;;;6276413;22;20006;-73
2022/12/25 13:37:14;;;;;;;32.00;24.77;;;14.70;84.20;;;;;;6249707;22;20007;-73
2022/12/25 13:39:50;;;;;;;35.28;25.48;;;14.70;84.30;;;;;;6277880;22;20073;-72
2022/12/25 13:42:19;;;;;;;31.30;25.55;;;14.60;84.50;;;;;;6278007;22;19995;-73
2022/12/25 13:44:50;;;;;;;32.35;25.65;;;14.60;84.60;;;;;;6277231;22;20003;-73
2022/12/25 13:47:41;;;;;;;36.38;27.23;;;14.60;84.70;;;;;;6250024;22;20018;-73
2022/12/25 13:50:25;;;;;;;35.30;25.30;;;14.60;84.80;;;;;;6277570;22;20007;-73
2022/12/25 13:52:52;;;;;;;34.55;24.88;;;14.50;84.60;;;;;;6277325;22;20010;-73
2022/12/25 13:55:23;;;;;;;33.72;26.40;;;14.50;85.00;;;;;;6277862;22;20015;-73
2022/12/25 13:57:54;;;;;;;33.85;24.48;;;14.50;85.00;;;;;;6277367;22;20012;-72
2022/12/25 14:00:27;;;;;;;32.05;25.55;;;14.40;85.10;;;;;;6249674;22;20015;-72
2022/12/25 14:02:53;;;;;;;34.03;26.00;;;14.40;85.20;;;;;;6277312;22;20055;-73
2022/12/25 14:05:22;;;;;;;33.85;26.35;;;14.40;85.50;;;;;;6277293;22;20027;-73
2022/12/25 14:07:52;;;;;;;32.85;25.40;;;14.40;85.50;;;;;;6277292;22;20004;-73
2022/12/25 14:10:19;;;;;;;32.28;25.85;;;14.40;85.60;;;;;;6277211;22;20004;-73
2022/12/25 14:12:49;;;;;;;32.78;25.88;;;14.30;85.70;;;;;;6250459;22;20004;-73
2022/12/25 14:15:19;;;;;;;31.67;24.55;;;14.30;85.70;;;;;;6277501;22;20046;-72
2022/12/25 14:17:45;;;;;;;35.60;26.00;;;14.30;85.80;;;;;;6277415;22;20050;-72
2022/12/25 14:20:26;;;;;;;33.25;25.17;;;14.30;85.90;;;;;;6277200;22;20011;-73
2022/12/25 14:22:58;;;;;;;33.40;25.17;;;14.30;86.00;;;;;;6277118;22;20334;-73
2022/12/25 14:25:33;;;;;;;31.85;23.63;;;14.30;85.90;;;;;;6249784;22;20008;-73
2022/12/25 14:28:07;;;;;;;33.42;25.02;;;14.30;85.90;;;;;;6250330;22;20307;-72
2022/12/25 14:30:34;;;;;;;32.67;25.20;;;14.20;85.90;;;;;;6277096;22;20426;-73
2022/12/25 14:33:01;;;;;;;31.45;24.27;;;14.20;85.90;;;;;;6277034;22;20000;-73
2022/12/25 14:35:27;;;;;;;33.03;24.80;;;14.20;86.00;;;;;;6249920;22;20014;-73
2022/12/25 14:37:59;;;;;;;34.08;25.73;;;14.20;86.10;;;;;;6277851;22;20004;-73
2022/12/25 14:40:30;;;;;;;31.20;24.77;;;14.10;86.20;;;;;;6276681;22;20012;-72
2022/12/25 14:43:00;;;;;;;33.35;23.85;;;14.10;86.40;;;;;;6277148;22;20026;-72
2022/12/25 14:45:26;;;;;;;31.83;25.38;;;14.10;86.50;;;;;;6276965;22;20414;-73